createdAt,value
2018-01-08T00:00:55.413Z,4.37
2018-01-08T00:03:23.089Z,4.40
2018-01-08T00:05:50.668Z,4.38
2018-01-08T00:08:18.234Z,4.30
2018-01-08T00:10:45.858Z,4.23
2018-01-08T00:13:13.487Z,4.18
2018-01-08T00:15:41.115Z,4.15
2018-01-08T00:18:08.737Z,4.10
2018-01-08T00:20:36.391Z,4.14
2018-01-08T00:23:03.945Z,4.12
2018-01-08T00:25:31.673Z,4.17
2018-01-08T00:27:59.247Z,4.16
2018-01-08T00:30:26.872Z,4.17
2018-01-08T00:32:54.526Z,4.17
2018-01-08T00:35:22.159Z,4.15
2018-01-08T00:37:49.807Z,4.17
2018-01-08T00:40:17.462Z,4.16
2018-01-08T00:42:45.026Z,4.17
2018-01-08T00:45:12.616Z,4.13
2018-01-08T00:47:40.299Z,4.14
2018-01-08T00:50:07.875Z,4.13
2018-01-08T00:52:35.509Z,4.05
2018-01-08T00:55:03.151Z,3.98
2018-01-08T00:57:30.726Z,3.95
2018-01-08T00:59:58.354Z,3.90
2018-01-08T01:02:25.999Z,3.90
2018-01-08T01:04:53.626Z,3.90
2018-01-08T01:07:21.198Z,3.88
2018-01-08T01:09:48.833Z,3.85
2018-01-08T01:12:16.387Z,3.82
2018-01-08T01:14:43.954Z,3.78
2018-01-08T01:17:11.586Z,3.76
2018-01-08T01:19:39.211Z,3.74
2018-01-08T01:22:06.828Z,3.76
2018-01-08T01:24:34.521Z,3.71
2018-01-08T01:27:02.095Z,3.73
2018-01-08T01:29:29.666Z,3.78
2018-01-08T01:31:57.282Z,3.73
2018-01-08T01:34:24.825Z,3.77
2018-01-08T01:36:52.393Z,3.84
2018-01-08T01:39:20.032Z,3.84
2018-01-08T01:41:47.613Z,3.82
2018-01-08T01:44:15.191Z,3.78
2018-01-08T01:46:42.814Z,3.75
2018-01-08T01:49:21.496Z,3.74
2018-01-08T01:51:49.126Z,3.69
2018-01-08T01:54:16.755Z,3.65
2018-01-08T01:56:44.329Z,3.59
2018-01-08T01:59:12.006Z,3.54
2018-01-08T02:01:39.622Z,3.53
2018-01-08T02:04:07.253Z,3.52
2018-01-08T02:06:34.870Z,3.59
2018-01-08T02:09:02.449Z,3.62
2018-01-08T02:11:30.019Z,3.63
2018-01-08T02:13:57.638Z,3.62
2018-01-08T02:16:25.202Z,3.71
2018-01-08T02:18:52.771Z,3.74
2018-01-08T02:21:20.468Z,3.74
2018-01-08T02:23:48.038Z,3.77
2018-01-08T02:26:15.677Z,3.74
2018-01-08T02:28:43.302Z,3.73
2018-01-08T02:31:10.866Z,3.71
2018-01-08T02:33:38.502Z,3.66
2018-01-08T02:36:06.182Z,3.65
2018-01-08T02:38:33.804Z,3.65
2018-01-08T02:41:01.373Z,3.65
2018-01-08T02:43:29.022Z,3.67
2018-01-08T02:45:56.587Z,3.69
2018-01-08T02:48:24.226Z,3.69
2018-01-08T02:50:51.980Z,3.65
2018-01-08T02:53:19.607Z,3.60
2018-01-08T02:55:47.174Z,3.53
2018-01-08T02:58:14.822Z,3.48
2018-01-08T03:00:42.512Z,3.43
2018-01-08T03:03:10.081Z,3.38
2018-01-08T03:05:37.702Z,3.35
2018-01-08T03:08:05.267Z,3.25
2018-01-08T03:10:32.834Z,3.38
2018-01-08T03:13:00.462Z,3.41
2018-01-08T03:15:28.025Z,3.35
2018-01-08T03:17:55.593Z,3.42
2018-01-08T03:20:23.275Z,3.44
2018-01-08T03:22:50.909Z,3.46
2018-01-08T03:25:18.509Z,3.49
2018-01-08T03:27:46.204Z,3.50
2018-01-08T03:30:13.829Z,3.49
2018-01-08T03:32:41.398Z,3.46
2018-01-08T03:35:09.018Z,3.46
2018-01-08T03:37:36.582Z,3.45
2018-01-08T03:40:04.158Z,3.43
2018-01-08T03:42:31.770Z,3.43
2018-01-08T03:44:59.331Z,3.41
2018-01-08T03:47:26.896Z,3.49
2018-01-08T03:49:54.576Z,3.53
2018-01-08T03:52:22.202Z,3.61
2018-01-08T03:54:49.826Z,3.66
2018-01-08T03:57:17.473Z,3.74
2018-01-08T03:59:45.043Z,3.80
2018-01-08T04:02:12.713Z,3.82
2018-01-08T04:04:40.343Z,3.80
2018-01-08T04:07:07.913Z,3.84
2018-01-08T04:09:35.538Z,3.87
2018-01-08T04:12:03.211Z,3.88
2018-01-08T04:14:30.834Z,3.84
2018-01-08T04:16:58.399Z,3.81
2018-01-08T04:19:26.018Z,3.81
2018-01-08T04:21:53.578Z,3.81
2018-01-08T04:24:21.152Z,3.75
2018-01-08T04:26:48.772Z,3.69
2018-01-08T04:29:16.339Z,3.68
2018-01-08T04:31:43.892Z,3.57
2018-01-08T04:34:11.564Z,3.58
2018-01-08T04:36:39.134Z,3.53
2018-01-08T04:39:06.708Z,3.50
2018-01-08T04:41:34.328Z,3.50
2018-01-08T04:44:01.965Z,3.52
2018-01-08T04:46:29.597Z,3.57
2018-01-08T04:48:57.279Z,3.58
2018-01-08T04:51:24.904Z,3.58
2018-01-08T04:53:52.462Z,3.59
2018-01-08T04:56:20.094Z,3.60
2018-01-08T04:58:47.675Z,3.61
2018-01-08T05:01:15.238Z,3.62
2018-01-08T05:03:42.859Z,3.62
2018-01-08T05:06:10.437Z,3.72
2018-01-08T05:08:38.003Z,3.82
2018-01-08T05:11:05.683Z,3.84
2018-01-08T05:13:33.290Z,3.85
2018-01-08T05:16:00.928Z,3.90
2018-01-08T05:18:28.611Z,3.90
2018-01-08T05:20:56.239Z,3.90
2018-01-08T05:23:23.821Z,3.92
2018-01-08T05:25:51.521Z,3.97
2018-01-08T05:28:19.087Z,4.00
2018-01-08T05:30:46.659Z,4.02
2018-01-08T05:33:14.352Z,4.04
2018-01-08T05:35:41.926Z,4.05
2018-01-08T05:38:09.493Z,4.12
2018-01-08T05:40:37.199Z,4.14
2018-01-08T05:43:04.771Z,4.19
2018-01-08T05:45:32.342Z,4.20
2018-01-08T05:47:59.966Z,4.19
2018-01-08T05:50:27.525Z,4.23
2018-01-08T05:52:55.085Z,4.24
2018-01-08T05:55:22.735Z,4.31
2018-01-08T05:57:50.359Z,4.37
2018-01-08T06:00:17.926Z,4.45
2018-01-08T06:02:45.608Z,4.53
2018-01-08T06:05:13.174Z,4.60
2018-01-08T06:07:40.738Z,4.63
2018-01-08T06:10:08.357Z,4.70
2018-01-08T06:12:35.982Z,4.73
2018-01-08T06:15:03.651Z,4.75
2018-01-08T06:17:31.274Z,4.80
2018-01-08T06:19:58.834Z,4.91
2018-01-08T06:22:26.458Z,4.98
2018-01-08T06:24:54.097Z,5.09
2018-01-08T06:27:21.643Z,5.19
2018-01-08T06:29:49.271Z,5.28
2018-01-08T06:32:16.924Z,5.33
2018-01-08T06:34:44.482Z,5.42
2018-01-08T06:37:12.112Z,5.43
2018-01-08T06:39:39.875Z,5.50
2018-01-08T06:42:07.438Z,5.53
2018-01-08T06:44:35.063Z,5.59
2018-01-08T06:47:02.711Z,5.58
2018-01-08T06:49:30.335Z,5.61
2018-01-08T06:51:57.897Z,5.48
2018-01-08T06:54:25.529Z,5.40
2018-01-08T06:56:53.090Z,5.37
2018-01-08T06:59:20.705Z,5.38
2018-01-08T07:01:48.275Z,5.43
2018-01-08T07:04:15.835Z,5.55
2018-01-08T07:06:43.428Z,5.64
2018-01-08T07:09:11.036Z,5.82
2018-01-08T07:11:38.658Z,5.94
2018-01-08T07:14:06.283Z,6.11
2018-01-08T07:16:33.851Z,6.34
2018-01-08T07:19:01.490Z,6.59
2018-01-08T07:21:29.084Z,6.80
2018-01-08T07:23:56.733Z,7.01
2018-01-08T07:26:24.354Z,7.22
2018-01-08T07:28:51.926Z,7.26
2018-01-08T07:31:19.561Z,7.30
2018-01-08T07:33:47.188Z,7.40
2018-01-08T07:36:14.803Z,7.42
2018-01-08T07:38:42.382Z,7.61
2018-01-08T07:41:10.006Z,7.84
2018-01-08T07:43:37.581Z,8.05
2018-01-08T07:46:05.147Z,8.39
2018-01-08T07:48:32.828Z,8.83
2018-01-08T07:51:00.394Z,9.21
2018-01-08T07:53:28.021Z,9.67
2018-01-08T07:55:55.660Z,10.04
2018-01-08T07:58:23.226Z,10.27
2018-01-08T08:00:50.854Z,10.45
2018-01-08T08:03:18.426Z,10.79
2018-01-08T08:05:45.995Z,10.96
2018-01-08T08:08:13.647Z,11.21
2018-01-08T08:10:41.278Z,11.37
2018-01-08T08:13:08.965Z,11.31
2018-01-08T08:15:36.551Z,11.31
2018-01-08T08:18:04.124Z,11.47
2018-01-08T08:20:31.706Z,11.59
2018-01-08T08:22:59.275Z,11.68
2018-01-08T08:25:26.886Z,11.94
2018-01-08T08:27:54.436Z,12.12
2018-01-08T08:30:21.997Z,12.40
2018-01-08T08:32:49.573Z,12.55
2018-01-08T08:35:17.180Z,12.73
2018-01-08T08:37:44.888Z,12.96
2018-01-08T08:40:12.537Z,13.02
2018-01-08T08:42:40.107Z,13.15
2018-01-08T08:45:08.606Z,13.27
2018-01-08T08:47:36.184Z,13.25
2018-01-08T08:50:03.844Z,13.33
2018-01-08T08:52:31.427Z,13.31
2018-01-08T08:54:59.034Z,13.31
2018-01-08T08:57:26.675Z,13.14
2018-01-08T08:59:54.246Z,13.11
2018-01-08T09:02:21.954Z,13.08
2018-01-08T09:04:49.591Z,13.27
2018-01-08T09:07:17.235Z,13.28
2018-01-08T09:09:44.878Z,13.24
2018-01-08T09:12:12.502Z,13.43
2018-01-08T09:14:40.225Z,13.48
2018-01-08T09:17:07.775Z,13.88
2018-01-08T09:19:35.333Z,14.11
2018-01-08T09:22:02.968Z,14.42
2018-01-08T09:24:30.534Z,14.57
2018-01-08T09:26:58.220Z,14.65
2018-01-08T09:29:25.855Z,14.70
2018-01-08T09:31:53.474Z,14.60
2018-01-08T09:34:21.116Z,14.42
2018-01-08T09:36:48.750Z,14.34
2018-01-08T09:39:16.375Z,14.14
2018-01-08T09:41:43.950Z,14.28
2018-01-08T09:44:11.522Z,14.39
2018-01-08T09:46:39.103Z,14.62
2018-01-08T09:49:06.734Z,14.72
2018-01-08T09:51:34.358Z,14.90
2018-01-08T09:54:01.982Z,15.00
2018-01-08T09:56:29.614Z,14.83
2018-01-08T09:58:57.195Z,14.68
2018-01-08T10:01:24.791Z,14.77
2018-01-08T10:04:04.056Z,14.75
2018-01-08T10:06:43.520Z,14.72
2018-01-08T10:09:22.754Z,14.07
2018-01-08T10:12:02.144Z,14.21
2018-01-08T10:14:41.727Z,13.91
2018-01-08T10:17:20.912Z,13.87
2018-01-08T10:20:03.415Z,14.00
2018-01-08T10:22:30.968Z,14.25
2018-01-08T10:24:58.590Z,13.92
2018-01-08T10:27:26.173Z,14.06
2018-01-08T10:29:53.805Z,14.27
2018-01-08T10:32:21.448Z,14.40
2018-01-08T10:34:49.022Z,14.41
2018-01-08T10:37:16.673Z,14.25
2018-01-08T10:39:44.303Z,14.31
2018-01-08T10:42:17.534Z,14.51
2018-01-08T10:44:50.685Z,15.10
2018-01-08T10:47:23.775Z,15.68
2018-01-08T10:49:56.957Z,16.57
2018-01-08T10:52:24.033Z,17.18
2018-01-08T10:54:51.660Z,17.62
2018-01-08T10:57:19.290Z,18.32
2018-01-08T10:59:46.880Z,19.06
2018-01-08T11:02:19.965Z,19.26
2018-01-08T11:04:47.549Z,19.72
2018-01-08T11:07:15.222Z,19.49
2018-01-08T11:09:42.841Z,19.35
2018-01-08T11:12:10.423Z,19.02
2018-01-08T11:14:38.002Z,18.73
2018-01-08T11:17:05.578Z,18.73
2018-01-08T11:19:33.151Z,18.45
2018-01-08T11:22:00.835Z,18.60
2018-01-08T11:24:28.482Z,18.72
2018-01-08T11:26:56.055Z,19.11
2018-01-08T11:29:23.647Z,19.57
2018-01-08T11:31:51.256Z,19.41
2018-01-08T11:34:18.902Z,19.13
2018-01-08T11:36:46.571Z,19.03
2018-01-08T11:39:14.154Z,19.00
2018-01-08T11:41:41.795Z,18.75
2018-01-08T11:44:09.504Z,18.14
2018-01-08T11:46:37.127Z,17.56
2018-01-08T11:49:04.758Z,17.17
2018-01-08T11:51:32.381Z,16.81
2018-01-08T11:53:59.950Z,16.64
2018-01-08T11:56:27.627Z,16.61
2018-01-08T11:58:55.231Z,16.34
2018-01-08T12:01:22.814Z,16.31
2018-01-08T12:03:50.446Z,16.33
2018-01-08T12:06:18.023Z,16.06
2018-01-08T12:08:45.582Z,15.68
2018-01-08T12:11:13.293Z,15.44
2018-01-08T12:13:40.879Z,15.51
2018-01-08T12:16:08.508Z,15.19
2018-01-08T12:18:36.179Z,15.19
2018-01-08T12:21:03.745Z,15.01
2018-01-08T12:23:31.370Z,14.77
2018-01-08T12:25:58.997Z,14.36
2018-01-08T12:28:26.583Z,14.25
2018-01-08T12:30:54.252Z,13.95
2018-01-08T12:33:21.823Z,13.82
2018-01-08T12:35:49.446Z,13.90
2018-01-08T12:38:17.074Z,13.71
2018-01-08T12:40:44.678Z,13.70
2018-01-08T12:43:12.318Z,13.75
2018-01-08T12:45:39.895Z,13.55
2018-01-08T12:48:07.519Z,13.52
2018-01-08T12:50:35.156Z,13.54
2018-01-08T12:53:02.727Z,13.54
2018-01-08T12:55:30.380Z,13.43
2018-01-08T12:57:57.951Z,13.47
2018-01-08T13:00:25.654Z,13.54
2018-01-08T13:02:53.291Z,13.47
2018-01-08T13:05:20.875Z,13.43
2018-01-08T13:07:48.459Z,13.41
2018-01-08T13:10:16.090Z,13.36
2018-01-08T13:12:43.780Z,13.29
2018-01-08T13:15:11.351Z,13.25
2018-01-08T13:17:38.984Z,13.23
2018-01-08T13:20:06.620Z,13.28
2018-01-08T13:22:34.216Z,13.22
2018-01-08T13:25:01.860Z,13.21
2018-01-08T13:27:29.487Z,13.27
2018-01-08T13:29:57.117Z,13.33
2018-01-08T13:32:24.765Z,13.36
2018-01-08T13:34:52.345Z,13.37
2018-01-08T13:37:19.974Z,13.30
2018-01-08T13:39:47.608Z,13.37
2018-01-08T13:42:15.202Z,13.34
2018-01-08T13:44:42.847Z,13.38
2018-01-08T13:47:10.483Z,13.34
2018-01-08T13:49:38.183Z,13.23
2018-01-08T13:52:05.782Z,13.13
2018-01-08T13:54:33.351Z,13.08
2018-01-08T13:57:01.017Z,12.92
2018-01-08T13:59:28.651Z,12.85
2018-01-08T14:01:56.351Z,12.83
2018-01-08T14:04:23.938Z,12.74
2018-01-08T14:06:51.603Z,12.58
2018-01-08T14:09:19.211Z,12.56
2018-01-08T14:11:46.885Z,12.47
2018-01-08T14:14:14.575Z,12.35
2018-01-08T14:16:42.148Z,12.24
2018-01-08T14:19:09.723Z,12.13
2018-01-08T14:21:37.310Z,12.00
2018-01-08T14:24:04.939Z,11.92
2018-01-08T14:26:32.569Z,11.90
2018-01-08T14:29:00.779Z,11.89
2018-01-08T14:31:28.350Z,11.78
2018-01-08T14:33:55.954Z,11.76
2018-01-08T14:36:23.523Z,11.66
2018-01-08T14:38:51.202Z,11.61
2018-01-08T14:41:18.778Z,11.56
2018-01-08T14:43:46.348Z,11.59
2018-01-08T14:46:13.930Z,11.52
2018-01-08T14:48:41.560Z,11.45
2018-01-08T14:51:09.243Z,11.45
2018-01-08T14:53:36.810Z,11.33
2018-01-08T14:56:04.415Z,11.28
2018-01-08T14:58:31.998Z,11.23
2018-01-08T15:00:59.629Z,11.23
2018-01-08T15:03:27.256Z,11.15
2018-01-08T15:05:54.843Z,11.04
2018-01-08T15:08:22.412Z,10.96
2018-01-08T15:10:49.998Z,10.94
2018-01-08T15:13:17.627Z,10.84
2018-01-08T15:15:45.259Z,10.85
2018-01-08T15:18:12.857Z,10.78
2018-01-08T15:20:40.502Z,10.75
2018-01-08T15:23:08.088Z,10.69
2018-01-08T15:25:35.719Z,10.67
2018-01-08T15:28:03.371Z,10.61
2018-01-08T15:30:31.010Z,10.57
2018-01-08T15:32:58.653Z,10.57
2018-01-08T15:35:26.230Z,10.58
2018-01-08T15:37:53.804Z,10.59
2018-01-08T15:40:21.428Z,10.53
2018-01-08T15:42:49.055Z,10.51
2018-01-08T15:45:16.687Z,10.45
2018-01-08T15:47:44.330Z,10.39
2018-01-08T15:50:11.912Z,10.34
2018-01-08T15:52:39.557Z,10.26
2018-01-08T15:55:07.128Z,10.28
2018-01-08T15:57:34.755Z,10.24
2018-01-08T16:00:02.353Z,10.22
2018-01-08T16:02:29.983Z,10.21
2018-01-08T16:04:57.606Z,10.21
2018-01-08T16:07:25.181Z,10.15
2018-01-08T16:09:52.762Z,10.14
2018-01-08T16:12:20.360Z,10.16
2018-01-08T16:14:48.012Z,10.15
2018-01-08T16:17:15.694Z,10.14
2018-01-08T16:19:43.275Z,10.11
2018-01-08T16:22:10.916Z,10.09
2018-01-08T16:24:38.495Z,10.02
2018-01-08T16:27:06.114Z,9.97
2018-01-08T16:29:33.803Z,9.97
2018-01-08T16:32:01.377Z,9.93
2018-01-08T16:34:29.129Z,9.88
2018-01-08T16:36:56.698Z,9.77
2018-01-08T16:39:24.313Z,9.68
2018-01-08T16:41:52.004Z,9.57
2018-01-08T16:44:19.631Z,9.50
2018-01-08T16:46:47.201Z,9.41
2018-01-08T16:49:14.800Z,9.32
2018-01-08T16:51:42.377Z,9.23
2018-01-08T16:54:10.035Z,9.13
2018-01-08T16:56:37.671Z,8.92
2018-01-08T16:59:05.229Z,8.76
2018-01-08T17:01:32.809Z,8.62
2018-01-08T17:04:00.382Z,8.52
2018-01-08T17:06:28.081Z,8.47
2018-01-08T17:08:55.780Z,8.41
2018-01-08T17:11:23.324Z,8.33
2018-01-08T17:13:50.887Z,8.27
2018-01-08T17:16:18.520Z,8.16
2018-01-08T17:18:46.157Z,8.08
2018-01-08T17:21:13.798Z,8.01
2018-01-08T17:23:41.382Z,7.94
2018-01-08T17:26:08.964Z,7.84
2018-01-08T17:28:36.535Z,7.79
2018-01-08T17:31:04.175Z,7.74
2018-01-08T17:33:31.750Z,7.70
2018-01-08T17:35:59.322Z,7.73
2018-01-08T17:38:26.909Z,7.75
2018-01-08T17:40:54.493Z,7.75
2018-01-08T17:43:22.146Z,7.75
2018-01-08T17:45:49.718Z,7.75
2018-01-08T17:48:17.347Z,7.75
2018-01-08T17:50:44.923Z,7.68
2018-01-08T17:53:12.484Z,7.62
2018-01-08T17:55:40.207Z,7.60
2018-01-08T17:58:07.775Z,7.58
2018-01-08T18:00:35.346Z,7.57
2018-01-08T18:03:02.926Z,7.54
2018-01-08T18:05:30.505Z,7.51
2018-01-08T18:07:58.144Z,7.50
2018-01-08T18:10:25.722Z,7.48
2018-01-08T18:12:53.359Z,7.53
2018-01-08T18:15:20.962Z,7.49
2018-01-08T18:17:48.591Z,7.39
2018-01-08T18:20:16.274Z,7.39
2018-01-08T18:22:43.905Z,7.36
2018-01-08T18:25:11.535Z,7.33
2018-01-08T18:27:39.206Z,7.29
2018-01-08T18:30:06.838Z,7.27
2018-01-08T18:32:34.470Z,7.24
2018-01-08T18:35:02.060Z,7.22
2018-01-08T18:37:29.648Z,7.21
2018-01-08T18:39:57.235Z,7.22
2018-01-08T18:42:24.821Z,7.26
2018-01-08T18:44:52.538Z,7.26
2018-01-08T18:47:20.181Z,7.29
2018-01-08T18:49:47.821Z,7.32
2018-01-08T18:52:15.378Z,7.32
2018-01-08T18:54:43.003Z,7.33
2018-01-08T18:57:10.622Z,7.33
2018-01-08T18:59:38.191Z,7.31
2018-01-08T19:02:05.837Z,7.32
2018-01-08T19:04:33.475Z,7.32
2018-01-08T19:07:01.115Z,7.30
2018-01-08T19:09:28.748Z,7.21
2018-01-08T19:11:56.375Z,7.16
2018-01-08T19:14:23.964Z,7.11
2018-01-08T19:16:51.551Z,7.07
2018-01-08T19:19:19.127Z,7.02
2018-01-08T19:21:46.829Z,6.99
2018-01-08T19:24:14.418Z,6.91
2018-01-08T19:26:41.992Z,6.83
2018-01-08T19:29:09.571Z,6.79
2018-01-08T19:31:37.151Z,6.77
2018-01-08T19:34:04.820Z,6.72
2018-01-08T19:36:32.394Z,6.68
2018-01-08T19:39:00.017Z,6.67
2018-01-08T19:41:27.681Z,6.65
2018-01-08T19:43:55.334Z,6.59
2018-01-08T19:46:22.962Z,6.58
2018-01-08T19:48:50.534Z,6.56
2018-01-08T19:51:18.116Z,6.55
2018-01-08T19:53:45.715Z,6.59
2018-01-08T19:56:13.350Z,6.57
2018-01-08T19:58:41.044Z,6.55
2018-01-08T20:01:08.671Z,6.49
2018-01-08T20:03:36.242Z,6.48
2018-01-08T20:06:03.892Z,6.46
2018-01-08T20:08:31.476Z,6.40
2018-01-08T20:10:59.158Z,6.33
2018-01-08T20:13:26.735Z,6.28
2018-01-08T20:15:54.288Z,6.21
2018-01-08T20:18:21.868Z,6.15
2018-01-08T20:20:49.534Z,6.11
2018-01-08T20:23:17.169Z,6.10
2018-01-08T20:25:44.750Z,6.07
2018-01-08T20:28:12.381Z,6.04
2018-01-08T20:30:39.965Z,6.01
2018-01-08T20:33:07.543Z,5.95
2018-01-08T20:35:35.165Z,5.87
2018-01-08T20:38:02.735Z,5.83
2018-01-08T20:40:30.298Z,5.78
2018-01-08T20:42:57.935Z,5.76
2018-01-08T20:45:25.562Z,5.74
2018-01-08T20:47:53.214Z,5.72
2018-01-08T20:50:20.841Z,5.69
2018-01-08T20:52:48.470Z,5.65
2018-01-08T20:55:16.110Z,5.61
2018-01-08T20:57:43.743Z,5.60
2018-01-08T21:00:11.394Z,5.62
2018-01-08T21:02:38.967Z,5.60
2018-01-08T21:05:06.543Z,5.60
2018-01-08T21:07:34.122Z,5.58
2018-01-08T21:10:01.692Z,5.56
2018-01-08T21:12:29.332Z,5.55
2018-01-08T21:14:56.905Z,5.55
2018-01-08T21:17:24.471Z,5.55
2018-01-08T21:19:52.051Z,5.57
2018-01-08T21:22:19.617Z,5.52
2018-01-08T21:24:47.222Z,5.46
2018-01-08T21:27:14.790Z,5.42
2018-01-08T21:29:42.415Z,5.40
2018-01-08T21:32:09.982Z,5.37
2018-01-08T21:34:37.606Z,5.34
2018-01-08T21:37:05.283Z,5.32
2018-01-08T21:39:33.668Z,5.30
2018-01-08T21:42:01.294Z,5.29
2018-01-08T21:44:28.874Z,5.20
2018-01-08T21:46:56.498Z,5.19
2018-01-08T21:49:24.192Z,5.15
2018-01-08T21:51:51.768Z,5.13
2018-01-08T21:54:19.344Z,5.14
2018-01-08T21:56:46.930Z,5.09
2018-01-08T21:59:14.567Z,5.14
2018-01-08T22:01:42.195Z,5.17
2018-01-08T22:04:09.802Z,5.24
2018-01-08T22:06:37.379Z,5.34
2018-01-08T22:09:05.008Z,5.35
2018-01-08T22:11:32.588Z,5.47
2018-01-08T22:14:00.211Z,5.63
2018-01-08T22:16:27.782Z,5.75
2018-01-08T22:18:55.351Z,5.83
2018-01-08T22:21:22.930Z,5.92
2018-01-08T22:23:50.503Z,6.02
2018-01-08T22:26:18.130Z,6.08
2018-01-08T22:28:45.756Z,6.11
2018-01-08T22:31:13.338Z,6.11
2018-01-08T22:33:40.914Z,6.12
2018-01-08T22:36:08.483Z,6.21
2018-01-08T22:38:36.122Z,6.25
2018-01-08T22:41:03.766Z,6.26
2018-01-08T22:43:31.340Z,6.28
2018-01-08T22:45:58.936Z,6.25
2018-01-08T22:48:26.507Z,6.19
2018-01-08T22:50:54.188Z,6.19
2018-01-08T22:53:21.814Z,6.25
2018-01-08T22:55:49.443Z,6.25
2018-01-08T22:58:17.037Z,6.27
2018-01-08T23:00:44.610Z,6.40
2018-01-08T23:03:12.305Z,6.34
2018-01-08T23:05:39.870Z,6.28
2018-01-08T23:08:07.438Z,6.31
2018-01-08T23:10:35.018Z,6.37
2018-01-08T23:13:02.588Z,6.44
2018-01-08T23:15:30.230Z,6.48
2018-01-08T23:17:57.801Z,6.49
2018-01-08T23:20:25.435Z,6.51
2018-01-08T23:22:53.079Z,6.54
2018-01-08T23:25:20.657Z,6.57
2018-01-08T23:27:48.295Z,6.56
2018-01-08T23:30:15.858Z,6.54
2018-01-08T23:32:43.482Z,6.55
2018-01-08T23:35:11.066Z,6.57
2018-01-08T23:37:38.638Z,6.55
2018-01-08T23:40:06.272Z,6.51
2018-01-08T23:42:33.848Z,6.54
2018-01-08T23:45:01.423Z,6.57
2018-01-08T23:47:28.998Z,6.57
2018-01-08T23:49:56.652Z,6.62
2018-01-08T23:52:24.386Z,6.62
2018-01-08T23:54:51.966Z,6.65
2018-01-08T23:57:19.546Z,6.66
2018-01-08T23:59:47.130Z,6.65
